Time;durP1;ratioP1;P1;durP2;ratioP2;P2;SDS_P1;SDS_P2;PMS_P1;PMS_P2;Temp;Humidity;BMP_temperature;BMP_pressure;BME280_temperature;BME280_humidity;BME280_pressure;Samples;Min_cycle;Max_cycle;Signal;HPM_P1;HPM_P2
2022/05/06 00:00:06;;;;;;;79.97;16.43;;;;;;;;;;4969978;28;20196;-47
2022/05/06 00:02:32;;;;;;;87.63;18.83;;;;;;;;;;4979293;28;20284;-46
2022/05/06 00:04:58;;;;;;;121.83;24.07;;;;;;;;;;4973950;28;20358;-46
2022/05/06 00:07:23;;;;;;;108.03;21.97;;;;;;;;;;4981341;28;20221;-48
2022/05/06 00:09:49;;;;;;;102.50;21.53;;;;;;;;;;4984225;28;20221;-48
2022/05/06 00:12:18;;;;;;;61.30;15.10;;;;;;;;;;4979211;28;20202;-48
2022/05/06 00:14:44;;;;;;;65.70;14.93;;;;;;;;;;4981906;28;20494;-48
2022/05/06 00:17:11;;;;;;;152.03;29.03;;;;;;;;;;4977467;28;20237;-48
2022/05/06 00:19:37;;;;;;;118.77;23.80;;;;;;;;;;4976850;28;20250;-48
2022/05/06 00:22:03;;;;;;;192.90;35.10;;;;;;;;;;4968430;28;20275;-48
2022/05/06 00:24:29;;;;;;;135.27;26.47;;;;;;;;;;4970381;28;20193;-47
2022/05/06 00:26:55;;;;;;;108.73;22.33;;;;;;;;;;4971863;28;20652;-48
2022/05/06 00:29:21;;;;;;;156.20;29.17;;;;;;;;;;4975330;28;20256;-47
2022/05/06 00:31:47;;;;;;;138.43;25.90;;;;;;;;;;4969803;28;20214;-47
2022/05/06 00:34:13;;;;;;;130.90;24.67;;;;;;;;;;4970884;28;20369;-47
2022/05/06 00:36:39;;;;;;;115.20;21.87;;;;;;;;;;4983847;28;20330;-48
2022/05/06 00:39:05;;;;;;;121.43;23.63;;;;;;;;;;4978246;28;20217;-48
2022/05/06 00:41:34;;;;;;;137.70;26.10;;;;;;;;;;4975358;28;20224;-48
2022/05/06 00:44:00;;;;;;;75.55;17.23;;;;;;;;;;4970008;28;20284;-48
2022/05/06 00:46:26;;;;;;;139.37;27.30;;;;;;;;;;4968284;28;20248;-48
2022/05/06 00:48:55;;;;;;;130.73;25.93;;;;;;;;;;4971931;28;20224;-48
2022/05/06 00:51:21;;;;;;;89.03;19.37;;;;;;;;;;4974966;28;20324;-48
2022/05/06 00:53:47;;;;;;;139.20;27.17;;;;;;;;;;4972154;28;20237;-48
2022/05/06 00:56:15;;;;;;;75.38;17.08;;;;;;;;;;4969620;28;20218;-48
2022/05/06 00:58:41;;;;;;;123.43;24.13;;;;;;;;;;4968600;28;20675;-48
2022/05/06 01:01:07;;;;;;;127.40;24.90;;;;;;;;;;4975476;28;20256;-47
2022/05/06 01:03:33;;;;;;;135.43;25.77;;;;;;;;;;4968958;28;20275;-48
2022/05/06 01:06:03;;;;;;;114.87;22.17;;;;;;;;;;4977690;28;20976;-48
2022/05/06 01:08:29;;;;;;;140.63;27.20;;;;;;;;;;4965637;28;20210;-47
2022/05/06 01:10:55;;;;;;;182.80;34.13;;;;;;;;;;4980418;28;20540;-48
2022/05/06 01:13:21;;;;;;;93.37;19.43;;;;;;;;;;4976295;28;20653;-48
2022/05/06 01:15:48;;;;;;;124.57;25.33;;;;;;;;;;4983217;28;20321;-48
2022/05/06 01:18:14;;;;;;;104.27;21.07;;;;;;;;;;4973985;28;20576;-48
2022/05/06 01:20:45;;;;;;;95.30;19.67;;;;;;;;;;4974190;28;20189;-48
2022/05/06 01:23:11;;;;;;;146.23;25.97;;;;;;;;;;4974446;28;20244;-48
2022/05/06 01:25:37;;;;;;;83.67;18.33;;;;;;;;;;4979446;28;20255;-47
2022/05/06 01:28:06;;;;;;;103.17;20.57;;;;;;;;;;4976625;28;20634;-47
2022/05/06 01:30:34;;;;;;;72.57;16.10;;;;;;;;;;4977188;28;20217;-48
2022/05/06 01:33:01;;;;;;;63.23;14.90;;;;;;;;;;4986805;28;20208;-47
2022/05/06 01:35:31;;;;;;;85.30;16.90;;;;;;;;;;4965988;28;20218;-48
2022/05/06 01:37:59;;;;;;;77.10;16.70;;;;;;;;;;4972852;28;20690;-47
2022/05/06 01:40:27;;;;;;;84.33;18.47;;;;;;;;;;4979636;28;20484;-48
2022/05/06 01:42:56;;;;;;;122.53;24.07;;;;;;;;;;4971111;28;20756;-48
2022/05/06 01:45:23;;;;;;;97.67;20.23;;;;;;;;;;4977610;28;20284;-47
2022/05/06 01:47:52;;;;;;;80.93;16.13;;;;;;;;;;4980985;28;20208;-48
2022/05/06 01:50:20;;;;;;;115.80;22.13;;;;;;;;;;4966796;28;20702;-47
2022/05/06 01:52:49;;;;;;;107.57;21.03;;;;;;;;;;4971896;28;20646;-48
2022/05/06 01:55:15;;;;;;;97.27;19.17;;;;;;;;;;4971945;28;20222;-47
2022/05/06 01:57:41;;;;;;;68.50;15.13;;;;;;;;;;4967232;28;20225;-47
2022/05/06 02:00:07;;;;;;;86.63;18.40;;;;;;;;;;4976069;28;20208;-47
2022/05/06 02:02:34;;;;;;;113.33;20.90;;;;;;;;;;4968809;28;20294;-48
2022/05/06 02:05:19;;;;;;;124.57;23.70;;;;;;;;;;4974871;28;20727;-47
2022/05/06 02:07:46;;;;;;;107.87;21.37;;;;;;;;;;4972405;28;20472;-47
2022/05/06 02:10:12;;;;;;;80.47;15.90;;;;;;;;;;4974445;28;20408;-48
2022/05/06 02:12:38;;;;;;;70.77;13.90;;;;;;;;;;4971562;28;20222;-51
2022/05/06 02:15:04;;;;;;;105.97;20.90;;;;;;;;;;4974671;28;20228;-48
2022/05/06 02:17:30;;;;;;;84.10;16.57;;;;;;;;;;4979171;28;20252;-48
2022/05/06 02:19:56;;;;;;;66.93;13.80;;;;;;;;;;4981175;28;20213;-48
2022/05/06 02:22:23;;;;;;;62.60;12.60;;;;;;;;;;4970872;28;20308;-48
2022/05/06 02:24:49;;;;;;;130.37;23.97;;;;;;;;;;4968028;28;20218;-48
2022/05/06 02:27:15;;;;;;;106.53;21.37;;;;;;;;;;4956552;28;20209;-48
2022/05/06 02:33:12;;;;;;;169.17;28.10;;;;;;;;;;4972006;28;20197;-48
2022/05/06 02:35:15;;;;;;;134.50;24.73;;;;;;;;;;4977434;28;20232;-47
2022/05/06 02:37:41;;;;;;;74.87;16.50;;;;;;;;;;4975978;28;20233;-47
2022/05/06 02:40:08;;;;;;;128.17;23.63;;;;;;;;;;4967089;28;20243;-48
2022/05/06 02:42:35;;;;;;;120.23;22.67;;;;;;;;;;4963496;28;20641;-47
2022/05/06 02:45:01;;;;;;;124.57;23.60;;;;;;;;;;4971448;28;20886;-48
2022/05/06 02:47:27;;;;;;;133.53;24.63;;;;;;;;;;4971249;28;20229;-48
2022/05/06 02:49:52;;;;;;;55.90;13.67;;;;;;;;;;4969307;28;20577;-47
2022/05/06 02:52:19;;;;;;;116.07;22.30;;;;;;;;;;4965329;28;20625;-48
2022/05/06 02:54:46;;;;;;;71.30;15.60;;;;;;;;;;4974435;28;20225;-48
2022/05/06 02:57:12;;;;;;;172.70;29.30;;;;;;;;;;4969131;28;20268;-47
2022/05/06 02:59:39;;;;;;;123.83;22.07;;;;;;;;;;4972361;28;20218;-48
2022/05/06 03:02:05;;;;;;;114.67;20.60;;;;;;;;;;4965581;28;23547;-48
2022/05/06 03:04:31;;;;;;;123.53;23.53;;;;;;;;;;4972990;28;20221;-47
2022/05/06 03:06:57;;;;;;;165.50;29.47;;;;;;;;;;4967349;28;20229;-47
2022/05/06 03:09:23;;;;;;;81.00;16.90;;;;;;;;;;4974469;28;20229;-47
2022/05/06 03:11:49;;;;;;;159.50;32.50;;;;;;;;;;4981346;28;20186;-47
2022/05/06 03:14:15;;;;;;;112.67;22.17;;;;;;;;;;4972109;28;20284;-48
2022/05/06 03:16:41;;;;;;;114.43;20.40;;;;;;;;;;4962959;28;20221;-48
2022/05/06 03:19:07;;;;;;;121.37;22.97;;;;;;;;;;4961787;28;20565;-47
2022/05/06 03:21:34;;;;;;;129.93;23.70;;;;;;;;;;4966634;28;20300;-48
2022/05/06 03:24:00;;;;;;;108.47;19.20;;;;;;;;;;4971396;28;20195;-48
2022/05/06 03:26:26;;;;;;;58.70;13.67;;;;;;;;;;4964864;28;20250;-47
2022/05/06 03:28:54;;;;;;;56.07;13.37;;;;;;;;;;4975999;28;20430;-48
2022/05/06 03:31:20;;;;;;;78.57;16.57;;;;;;;;;;4969726;28;20225;-48
2022/05/06 03:33:47;;;;;;;121.53;21.80;;;;;;;;;;4973354;28;20759;-47
2022/05/06 03:36:13;;;;;;;117.23;22.10;;;;;;;;;;4965982;28;20455;-47
2022/05/06 03:38:39;;;;;;;65.33;14.17;;;;;;;;;;4969559;28;20557;-47
2022/05/06 03:41:05;;;;;;;124.23;21.50;;;;;;;;;;4966437;28;20210;-47
2022/05/06 03:43:31;;;;;;;114.43;19.97;;;;;;;;;;4972208;28;20650;-47
2022/05/06 03:45:57;;;;;;;54.67;13.00;;;;;;;;;;4970625;28;20320;-47
2022/05/06 03:48:24;;;;;;;124.50;23.70;;;;;;;;;;4962772;28;20272;-48
2022/05/06 03:53:39;;;;;;;69.97;15.33;;;;;;;;;;4970995;28;20225;-47
2022/05/06 03:56:05;;;;;;;97.13;19.40;;;;;;;;;;4969051;28;20934;-47
2022/05/06 03:58:32;;;;;;;117.23;22.30;;;;;;;;;;4959004;28;20237;-47
2022/05/06 04:00:58;;;;;;;102.27;17.93;;;;;;;;;;4964861;28;20229;-47
2022/05/06 04:03:24;;;;;;;85.07;16.50;;;;;;;;;;4961719;28;22115;-47
2022/05/06 04:05:50;;;;;;;88.03;16.63;;;;;;;;;;4976221;28;20441;-48
2022/05/06 04:08:16;;;;;;;90.97;18.73;;;;;;;;;;4973735;28;20218;-47
2022/05/06 04:10:42;;;;;;;91.57;18.70;;;;;;;;;;4977470;28;20267;-48
2022/05/06 04:13:08;;;;;;;78.50;16.67;;;;;;;;;;4972178;28;20229;-47
2022/05/06 04:15:35;;;;;;;73.60;16.13;;;;;;;;;;4977368;28;20619;-47
2022/05/06 04:18:01;;;;;;;138.73;24.83;;;;;;;;;;4974336;28;20634;-48
2022/05/06 04:23:31;;;;;;;82.73;16.87;;;;;;;;;;4969636;28;20221;-48
2022/05/06 04:25:58;;;;;;;163.13;29.57;;;;;;;;;;4967939;28;20216;-47
2022/05/06 04:28:24;;;;;;;116.47;23.17;;;;;;;;;;4960479;28;20217;-47
2022/05/06 04:30:51;;;;;;;97.47;19.73;;;;;;;;;;4965543;28;20213;-47
2022/05/06 04:33:17;;;;;;;91.23;17.97;;;;;;;;;;4958646;28;20371;-47
2022/05/06 04:35:43;;;;;;;104.07;20.40;;;;;;;;;;4962653;28;21194;-47
2022/05/06 04:38:09;;;;;;;69.50;15.07;;;;;;;;;;4966924;28;20240;-47
2022/05/06 04:40:36;;;;;;;71.47;14.80;;;;;;;;;;4974371;28;20389;-47
2022/05/06 04:43:03;;;;;;;100.83;20.30;;;;;;;;;;4962991;28;20442;-47
2022/05/06 04:45:29;;;;;;;104.97;21.00;;;;;;;;;;4968451;28;20661;-47
2022/05/06 04:47:56;;;;;;;100.90;20.60;;;;;;;;;;4967669;28;20206;-48
2022/05/06 04:50:22;;;;;;;128.93;25.17;;;;;;;;;;4972728;28;20274;-47
2022/05/06 04:52:49;;;;;;;56.77;14.00;;;;;;;;;;4972948;28;20217;-48
2022/05/06 04:55:15;;;;;;;83.57;17.97;;;;;;;;;;4971774;28;20663;-48
2022/05/06 04:57:41;;;;;;;111.13;22.30;;;;;;;;;;4968488;28;20229;-48
2022/05/06 05:00:07;;;;;;;128.03;24.73;;;;;;;;;;4967304;28;20244;-48
2022/05/06 05:02:33;;;;;;;81.10;16.40;;;;;;;;;;4974938;28;20666;-47
2022/05/06 05:05:00;;;;;;;117.57;23.33;;;;;;;;;;4961028;28;20311;-47
2022/05/06 05:07:26;;;;;;;111.23;22.27;;;;;;;;;;4966438;28;20251;-48
2022/05/06 05:09:52;;;;;;;63.53;15.10;;;;;;;;;;4981848;28;20214;-48
2022/05/06 05:12:18;;;;;;;78.70;16.10;;;;;;;;;;4972830;28;20193;-47
2022/05/06 05:14:44;;;;;;;43.97;11.47;;;;;;;;;;4979810;28;20210;-48
2022/05/06 05:17:11;;;;;;;123.20;23.50;;;;;;;;;;4972837;28;20222;-48
2022/05/06 05:19:37;;;;;;;87.90;17.73;;;;;;;;;;4971960;28;20218;-48
2022/05/06 05:22:04;;;;;;;158.37;29.17;;;;;;;;;;4966605;28;20287;-48
2022/05/06 05:24:30;;;;;;;78.47;17.43;;;;;;;;;;4968785;28;20196;-48
2022/05/06 05:26:57;;;;;;;83.30;17.97;;;;;;;;;;4970393;28;20197;-47
2022/05/06 05:29:23;;;;;;;152.53;28.80;;;;;;;;;;4969860;28;20232;-47
2022/05/06 05:31:49;;;;;;;132.03;24.80;;;;;;;;;;4971004;28;20570;-48
2022/05/06 05:34:15;;;;;;;97.70;19.73;;;;;;;;;;4973311;28;20256;-48
2022/05/06 05:36:41;;;;;;;99.90;20.23;;;;;;;;;;4971958;28;20305;-48
2022/05/06 05:39:07;;;;;;;103.93;20.80;;;;;;;;;;4971848;28;20237;-48
2022/05/06 05:41:33;;;;;;;268.63;44.83;;;;;;;;;;4951861;28;20225;-48
2022/05/06 05:49:29;;;;;;;95.30;19.75;;;;;;;;;;4961406;28;20615;-48
2022/05/06 05:51:55;;;;;;;119.87;23.80;;;;;;;;;;4961256;28;20221;-48
2022/05/06 05:54:21;;;;;;;129.23;25.17;;;;;;;;;;4963804;28;20217;-48
2022/05/06 05:56:47;;;;;;;97.27;18.87;;;;;;;;;;4967091;28;20264;-48
2022/05/06 05:59:13;;;;;;;156.23;29.40;;;;;;;;;;4966288;28;20287;-48
2022/05/06 06:01:39;;;;;;;239.47;44.37;;;;;;;;;;4961062;28;20225;-48
2022/05/06 06:04:05;;;;;;;140.77;29.80;;;;;;;;;;4963297;28;20241;-48
2022/05/06 06:06:31;;;;;;;181.70;34.80;;;;;;;;;;4959783;28;21905;-48
2022/05/06 06:08:57;;;;;;;81.03;17.70;;;;;;;;;;4957314;28;20182;-48
2022/05/06 06:11:23;;;;;;;89.88;19.52;;;;;;;;;;4962150;28;20244;-48
2022/05/06 06:13:49;;;;;;;137.63;26.98;;;;;;;;;;4967555;28;20593;-48
2022/05/06 06:16:17;;;;;;;132.13;26.30;;;;;;;;;;4966425;28;20638;-48
2022/05/06 06:18:43;;;;;;;126.13;24.48;;;;;;;;;;4960825;28;22913;-48
2022/05/06 06:21:09;;;;;;;93.72;19.15;;;;;;;;;;4965028;28;20765;-48
2022/05/06 06:23:35;;;;;;;134.93;25.23;;;;;;;;;;4964698;28;20287;-48
2022/05/06 06:26:01;;;;;;;101.85;19.77;;;;;;;;;;4964070;28;20225;-49
2022/05/06 06:28:27;;;;;;;91.53;19.25;;;;;;;;;;4970315;28;20259;-49
2022/05/06 06:30:53;;;;;;;80.20;17.03;;;;;;;;;;4971012;28;20241;-50
2022/05/06 06:33:19;;;;;;;76.40;16.87;;;;;;;;;;4954492;28;20388;-50
2022/05/06 06:35:45;;;;;;;67.22;15.25;;;;;;;;;;4964940;28;20197;-51
2022/05/06 06:38:11;;;;;;;133.32;27.35;;;;;;;;;;4962931;28;20666;-50
2022/05/06 06:40:37;;;;;;;114.35;24.45;;;;;;;;;;4962150;28;20221;-51
2022/05/06 06:43:03;;;;;;;124.35;25.85;;;;;;;;;;4962631;28;20305;-50
2022/05/06 06:45:30;;;;;;;109.80;23.93;;;;;;;;;;4972132;28;20236;-50
2022/05/06 06:47:56;;;;;;;140.07;28.00;;;;;;;;;;4961130;28;20214;-50
2022/05/06 06:50:23;;;;;;;70.20;17.02;;;;;;;;;;4972401;28;20682;-50
2022/05/06 06:52:49;;;;;;;125.03;25.67;;;;;;;;;;4978015;28;20539;-50
2022/05/06 06:55:15;;;;;;;64.60;15.45;;;;;;;;;;4975732;28;20268;-49
2022/05/06 06:57:41;;;;;;;228.27;43.90;;;;;;;;;;4956487;28;20229;-48
2022/05/06 07:00:08;;;;;;;112.53;24.15;;;;;;;;;;4957538;28;20194;-48
2022/05/06 07:02:35;;;;;;;117.88;23.88;;;;;;;;;;4961562;28;20352;-48
2022/05/06 07:05:01;;;;;;;177.23;33.72;;;;;;;;;;4970569;28;20737;-48
2022/05/06 07:12:56;;;;;;;50.17;12.20;;;;;;;;;;4986075;28;20723;-47
2022/05/06 07:15:23;;;;;;;56.45;14.68;;;;;;;;;;4987523;28;20684;-48
2022/05/06 07:17:49;;;;;;;63.67;15.23;;;;;;;;;;4984664;28;20320;-48
2022/05/06 07:20:15;;;;;;;61.35;15.05;;;;;;;;;;4983680;28;20296;-48
2022/05/06 07:22:41;;;;;;;81.15;17.13;;;;;;;;;;4984601;28;20287;-47
2022/05/06 07:25:08;;;;;;;79.50;17.17;;;;;;;;;;4986302;28;20365;-48
2022/05/06 07:27:35;;;;;;;89.68;17.98;;;;;;;;;;4986300;28;20229;-48
2022/05/06 07:30:01;;;;;;;85.00;19.17;;;;;;;;;;4984022;28;20216;-48
2022/05/06 07:32:27;;;;;;;60.03;14.45;;;;;;;;;;4993856;28;20308;-48
2022/05/06 07:34:53;;;;;;;64.57;15.27;;;;;;;;;;5006132;28;20726;-48
2022/05/06 07:37:19;;;;;;;73.53;15.93;;;;;;;;;;4990991;28;20299;-48
2022/05/06 07:39:45;;;;;;;65.65;15.00;;;;;;;;;;4996956;28;20236;-48
2022/05/06 07:42:12;;;;;;;59.90;14.25;;;;;;;;;;4988478;28;20304;-48
2022/05/06 07:44:38;;;;;;;68.15;16.08;;;;;;;;;;4986325;28;20317;-48
2022/05/06 07:47:04;;;;;;;71.07;16.38;;;;;;;;;;4986294;28;20366;-48
2022/05/06 07:49:30;;;;;;;75.13;17.15;;;;;;;;;;4993617;28;20349;-48
2022/05/06 07:51:56;;;;;;;63.35;15.18;;;;;;;;;;5001252;28;20241;-48
2022/05/06 07:54:22;;;;;;;80.63;17.90;;;;;;;;;;4984117;28;20205;-47
2022/05/06 07:56:48;;;;;;;97.43;20.30;;;;;;;;;;4985084;28;20189;-48
2022/05/06 07:59:14;;;;;;;85.78;18.23;;;;;;;;;;4983480;28;20229;-48
2022/05/06 08:04:34;;;;;;;69.75;16.70;;;;;;;;;;4966476;28;20241;-48
2022/05/06 08:07:04;;;;;;;61.42;15.88;;;;;;;;;;4981856;28;20495;-48
2022/05/06 08:09:29;;;;;;;73.70;18.25;;;;;;;;;;5004192;28;20215;-48
2022/05/06 08:11:57;;;;;;;64.43;16.77;;;;;;;;;;4997411;28;20238;-48
2022/05/06 08:14:23;;;;;;;62.30;15.55;;;;;;;;;;5004412;28;20275;-48
2022/05/06 08:16:50;;;;;;;86.53;19.92;;;;;;;;;;4983793;28;20329;-48
2022/05/06 08:19:16;;;;;;;90.97;20.05;;;;;;;;;;4985869;28;20396;-47
2022/05/06 08:21:43;;;;;;;72.38;17.23;;;;;;;;;;4987308;28;20228;-48
2022/05/06 08:24:09;;;;;;;89.55;21.02;;;;;;;;;;4987381;28;20644;-48
2022/05/06 08:26:35;;;;;;;84.03;19.45;;;;;;;;;;4987456;28;20308;-48
2022/05/06 08:29:01;;;;;;;83.65;18.67;;;;;;;;;;4987650;28;20240;-48
2022/05/06 08:31:27;;;;;;;71.55;16.63;;;;;;;;;;4987704;28;20221;-48
2022/05/06 08:33:54;;;;;;;83.70;18.63;;;;;;;;;;4988348;28;20327;-48
2022/05/06 08:36:20;;;;;;;82.22;19.00;;;;;;;;;;4986245;28;20233;-48
2022/05/06 08:38:46;;;;;;;77.75;18.42;;;;;;;;;;4986731;28;20670;-48
2022/05/06 08:41:13;;;;;;;74.70;17.98;;;;;;;;;;4989607;28;20311;-47
2022/05/06 08:43:38;;;;;;;97.60;22.00;;;;;;;;;;5001054;28;20209;-48
2022/05/06 08:51:36;;;;;;;72.60;17.40;;;;;;;;;;4995369;28;20554;-48
2022/05/06 08:54:02;;;;;;;68.18;16.45;;;;;;;;;;4990818;28;20178;-48
2022/05/06 08:56:29;;;;;;;79.20;18.17;;;;;;;;;;4987496;28;20232;-48
2022/05/06 08:58:55;;;;;;;86.93;19.05;;;;;;;;;;4985790;28;20221;-48
2022/05/06 09:01:22;;;;;;;73.72;16.83;;;;;;;;;;4987641;28;20216;-48
2022/05/06 09:03:48;;;;;;;81.28;18.27;;;;;;;;;;4988198;28;20563;-48
2022/05/06 09:06:18;;;;;;;63.38;15.65;;;;;;;;;;4988085;28;20266;-48
2022/05/06 09:08:45;;;;;;;87.95;20.50;;;;;;;;;;4986504;28;20273;-48
2022/05/06 09:11:11;;;;;;;59.33;16.13;;;;;;;;;;4985647;28;20221;-48
2022/05/06 09:13:38;;;;;;;75.95;19.15;;;;;;;;;;4987698;28;20708;-48
2022/05/06 09:19:20;;;;;;;77.80;18.75;;;;;;;;;;4986961;28;20593;-48
2022/05/06 09:22:17;;;;;;;75.13;18.67;;;;;;;;;;4986949;28;20735;-48
2022/05/06 09:24:44;;;;;;;73.90;18.63;;;;;;;;;;4970940;28;20241;-48
2022/05/06 09:27:13;;;;;;;92.18;22.10;;;;;;;;;;5003860;28;20209;-48
2022/05/06 09:29:46;;;;;;;92.38;21.90;;;;;;;;;;5004542;28;20216;-47
2022/05/06 09:32:28;;;;;;;85.38;20.33;;;;;;;;;;5004114;28;20228;-47
2022/05/06 09:34:58;;;;;;;75.22;18.63;;;;;;;;;;4987609;28;20303;-47
2022/05/06 09:37:35;;;;;;;81.65;19.77;;;;;;;;;;4984051;28;20270;-47
2022/05/06 09:40:02;;;;;;;61.53;16.40;;;;;;;;;;4991836;28;20358;-47
2022/05/06 09:42:28;;;;;;;84.05;19.65;;;;;;;;;;5005110;28;20242;-47
2022/05/06 09:44:54;;;;;;;75.95;18.95;;;;;;;;;;5004524;28;20716;-47
2022/05/06 09:47:20;;;;;;;78.40;18.73;;;;;;;;;;4990077;28;20233;-47
2022/05/06 09:49:49;;;;;;;70.40;17.90;;;;;;;;;;4994558;28;20283;-47
2022/05/06 09:52:16;;;;;;;75.20;19.10;;;;;;;;;;4983868;28;20249;-47
2022/05/06 09:54:43;;;;;;;72.95;18.80;;;;;;;;;;4986646;28;20368;-47
2022/05/06 09:57:10;;;;;;;95.78;23.17;;;;;;;;;;4985278;28;20637;-48
2022/05/06 09:59:36;;;;;;;77.70;20.08;;;;;;;;;;4985679;28;20304;-47
2022/05/06 10:02:03;;;;;;;79.78;20.10;;;;;;;;;;4985243;28;20294;-47
2022/05/06 10:04:29;;;;;;;82.18;20.85;;;;;;;;;;4986224;28;20312;-47
2022/05/06 10:06:57;;;;;;;82.13;21.05;;;;;;;;;;4984766;28;20289;-47
2022/05/06 10:09:25;;;;;;;82.07;20.98;;;;;;;;;;4985363;28;20173;-47
2022/05/06 10:11:51;;;;;;;86.65;22.13;;;;;;;;;;4985810;28;20658;-47
2022/05/06 10:14:18;;;;;;;84.63;21.38;;;;;;;;;;4984403;28;20217;-47
2022/05/06 10:16:44;;;;;;;57.78;15.93;;;;;;;;;;4985054;28;20689;-48
2022/05/06 10:19:44;;;;;;;85.25;20.90;;;;;;;;;;4981247;28;20233;-48
2022/05/06 10:22:10;;;;;;;102.63;25.10;;;;;;;;;;4974986;28;20213;-48
2022/05/06 10:24:49;;;;;;;137.55;31.77;;;;;;;;;;4980151;28;20264;-48
2022/05/06 10:32:25;;;;;;;128.60;30.75;;;;;;;;;;4976684;28;20212;-48
2022/05/06 10:33:14;;;;;;;112.93;27.38;;;;;;;;;;4962773;28;20637;-48
2022/05/06 10:35:41;;;;;;;107.80;26.23;;;;;;;;;;4961721;28;20184;-49
2022/05/06 10:38:18;;;;;;;96.25;24.33;;;;;;;;;;4961386;28;20262;-48
2022/05/06 10:40:56;;;;;;;237.02;59.20;;;;;;;;;;4962804;28;20224;-47
2022/05/06 10:43:41;;;;;;;144.57;37.47;;;;;;;;;;4955087;28;20304;-47
2022/05/06 10:46:07;;;;;;;103.72;27.48;;;;;;;;;;4970865;28;20605;-48
2022/05/06 10:48:33;;;;;;;208.90;51.67;;;;;;;;;;4948245;28;20339;-47
2022/05/06 10:51:17;;;;;;;123.97;31.30;;;;;;;;;;4961766;28;20182;-47
2022/05/06 10:53:43;;;;;;;166.15;40.60;;;;;;;;;;4959519;28;20642;-47
2022/05/06 10:56:09;;;;;;;306.08;67.63;;;;;;;;;;4963158;28;20233;-47
2022/05/06 10:58:35;;;;;;;182.90;42.05;;;;;;;;;;4966368;28;20236;-47
2022/05/06 11:01:01;;;;;;;115.13;29.30;;;;;;;;;;4950177;28;20226;-46
2022/05/06 11:03:27;;;;;;;99.85;26.73;;;;;;;;;;4965241;28;20189;-46
2022/05/06 11:05:53;;;;;;;117.53;31.35;;;;;;;;;;4963535;28;20785;-46
2022/05/06 11:08:21;;;;;;;151.57;38.17;;;;;;;;;;4969201;28;20706;-51
2022/05/06 11:10:49;;;;;;;119.55;30.08;;;;;;;;;;4973379;28;20245;-50
2022/05/06 11:13:18;;;;;;;95.93;24.27;;;;;;;;;;4967528;28;20841;-51
2022/05/06 11:15:45;;;;;;;88.03;23.92;;;;;;;;;;4973610;28;20543;-51
2022/05/06 11:18:11;;;;;;;83.95;22.38;;;;;;;;;;4981618;28;20234;-52
2022/05/06 11:20:37;;;;;;;105.05;28.58;;;;;;;;;;4972325;28;20348;-50
2022/05/06 11:23:03;;;;;;;73.38;22.45;;;;;;;;;;4978209;28;20688;-53
2022/05/06 11:25:31;;;;;;;99.80;27.75;;;;;;;;;;4982496;28;20216;-51
2022/05/06 11:27:58;;;;;;;92.82;26.02;;;;;;;;;;4985241;28;20221;-48
2022/05/06 11:30:24;;;;;;;96.72;26.27;;;;;;;;;;4977882;28;20266;-48
2022/05/06 11:32:54;;;;;;;115.00;30.10;;;;;;;;;;4980810;28;20615;-48
2022/05/06 11:35:41;;;;;;;86.32;24.27;;;;;;;;;;4974346;28;20248;-48
2022/05/06 11:38:07;;;;;;;100.07;27.63;;;;;;;;;;4972676;28;20808;-48
2022/05/06 11:40:35;;;;;;;129.20;35.13;;;;;;;;;;4976106;28;20327;-48
2022/05/06 11:43:02;;;;;;;130.70;34.58;;;;;;;;;;4980291;28;20225;-48
2022/05/06 11:48:14;;;;;;;110.55;30.10;;;;;;;;;;4971664;28;20480;-48
2022/05/06 11:50:41;;;;;;;143.02;37.60;;;;;;;;;;4977336;28;20640;-48
2022/05/06 11:53:08;;;;;;;89.53;24.50;;;;;;;;;;4975404;28;20307;-48
2022/05/06 11:55:35;;;;;;;93.90;25.58;;;;;;;;;;4985165;28;20225;-48
2022/05/06 11:58:02;;;;;;;99.53;26.20;;;;;;;;;;4982363;28;20233;-48
2022/05/06 12:00:29;;;;;;;67.40;20.02;;;;;;;;;;4988084;28;20227;-48
2022/05/06 12:02:55;;;;;;;83.10;21.73;;;;;;;;;;4988666;28;20193;-48
2022/05/06 12:05:21;;;;;;;102.38;27.00;;;;;;;;;;4974579;28;20218;-48
2022/05/06 12:07:48;;;;;;;178.07;44.30;;;;;;;;;;4977377;28;20308;-48
2022/05/06 12:10:28;;;;;;;166.02;43.45;;;;;;;;;;4982253;28;20665;-48
2022/05/06 12:12:55;;;;;;;119.75;30.35;;;;;;;;;;4981441;28;20217;-48
2022/05/06 12:15:28;;;;;;;85.95;24.25;;;;;;;;;;4984437;28;20528;-48
2022/05/06 12:18:03;;;;;;;91.13;24.83;;;;;;;;;;4981343;28;20219;-48
2022/05/06 12:20:36;;;;;;;80.10;22.50;;;;;;;;;;4980077;28;20224;-48
2022/05/06 12:23:02;;;;;;;116.53;31.38;;;;;;;;;;4979033;28;20727;-48
2022/05/06 12:25:29;;;;;;;146.73;38.50;;;;;;;;;;4977242;28;20400;-49
2022/05/06 12:28:10;;;;;;;126.68;32.42;;;;;;;;;;4977285;28;20271;-48
2022/05/06 12:30:37;;;;;;;95.03;26.33;;;;;;;;;;4985198;28;20741;-46
2022/05/06 12:33:11;;;;;;;123.63;32.10;;;;;;;;;;4984737;28;20189;-46
2022/05/06 12:35:56;;;;;;;92.10;25.65;;;;;;;;;;4979191;28;20216;-53
2022/05/06 12:38:26;;;;;;;90.95;24.75;;;;;;;;;;4983331;28;20236;-52
2022/05/06 12:40:53;;;;;;;102.80;28.10;;;;;;;;;;4984904;28;20719;-54
2022/05/06 12:43:28;;;;;;;99.78;28.90;;;;;;;;;;4987137;28;20550;-52
2022/05/06 12:45:55;;;;;;;97.95;27.67;;;;;;;;;;4987006;28;20653;-50
2022/05/06 12:51:06;;;;;;;75.75;23.10;;;;;;;;;;4985930;28;20204;-52
2022/05/06 12:53:35;;;;;;;151.35;42.80;;;;;;;;;;4980458;28;20221;-51
2022/05/06 12:56:02;;;;;;;82.45;22.95;;;;;;;;;;4987899;28;20646;-51
2022/05/06 12:58:28;;;;;;;88.93;25.35;;;;;;;;;;4984281;28;20221;-51
2022/05/06 13:00:55;;;;;;;105.55;31.02;;;;;;;;;;4974416;28;20264;-50
2022/05/06 13:03:21;;;;;;;83.13;25.30;;;;;;;;;;4986754;28;20189;-50
2022/05/06 13:05:47;;;;;;;70.72;22.45;;;;;;;;;;4984176;28;20174;-52
2022/05/06 13:08:13;;;;;;;78.63;23.58;;;;;;;;;;4987826;28;20225;-50
2022/05/06 13:10:39;;;;;;;100.75;28.17;;;;;;;;;;4984884;28;20316;-51
2022/05/06 13:13:05;;;;;;;87.57;25.23;;;;;;;;;;4983661;28;20296;-50
2022/05/06 13:15:31;;;;;;;111.35;30.85;;;;;;;;;;4984809;28;20656;-52
2022/05/06 13:17:57;;;;;;;82.07;23.88;;;;;;;;;;4980221;28;20352;-52
2022/05/06 13:20:23;;;;;;;141.55;40.17;;;;;;;;;;4980750;28;20217;-52
2022/05/06 13:22:49;;;;;;;89.90;26.10;;;;;;;;;;4977632;28;20260;-51
2022/05/06 13:25:15;;;;;;;290.08;84.55;;;;;;;;;;4972305;28;20237;-52
2022/05/06 13:27:41;;;;;;;94.55;27.55;;;;;;;;;;4975359;28;20257;-52
2022/05/06 13:30:08;;;;;;;145.18;42.78;;;;;;;;;;4972604;28;20261;-52
2022/05/06 13:32:34;;;;;;;106.07;32.90;;;;;;;;;;4972879;28;20276;-51
2022/05/06 13:35:00;;;;;;;228.65;68.88;;;;;;;;;;4956440;28;20217;-53
2022/05/06 13:37:26;;;;;;;91.75;30.55;;;;;;;;;;4965323;28;20230;-49
2022/05/06 13:39:52;;;;;;;95.82;31.92;;;;;;;;;;4979796;28;20222;-50
2022/05/06 13:42:18;;;;;;;75.03;25.92;;;;;;;;;;4982602;28;20185;-49
2022/05/06 13:44:46;;;;;;;139.82;42.47;;;;;;;;;;4965211;28;20265;-50
2022/05/06 13:47:12;;;;;;;146.57;45.33;;;;;;;;;;4956367;28;20567;-49
2022/05/06 13:49:38;;;;;;;150.30;45.38;;;;;;;;;;4961413;28;20225;-49
2022/05/06 13:52:04;;;;;;;103.32;33.78;;;;;;;;;;4967875;28;20210;-50
2022/05/06 13:54:30;;;;;;;106.30;35.17;;;;;;;;;;4976158;28;20238;-49
2022/05/06 13:59:41;;;;;;;166.80;53.65;;;;;;;;;;4966404;28;20272;-50
2022/05/06 14:02:06;;;;;;;169.20;59.35;;;;;;;;;;4958775;28;20888;-50
2022/05/06 14:04:32;;;;;;;192.23;73.82;;;;;;;;;;4959461;28;20224;-50
2022/05/06 14:06:58;;;;;;;146.18;56.75;;;;;;;;;;4967104;28;20477;-50
2022/05/06 14:09:24;;;;;;;178.15;71.63;;;;;;;;;;4966224;28;20447;-48
2022/05/06 14:11:50;;;;;;;177.85;76.13;;;;;;;;;;4955320;28;20265;-47
2022/05/06 14:14:16;;;;;;;158.70;83.25;;;;;;;;;;4966252;28;20570;-48
2022/05/06 14:16:42;;;;;;;167.00;81.15;;;;;;;;;;4964759;28;20230;-50
2022/05/06 14:19:08;;;;;;;230.73;106.85;;;;;;;;;;4966695;28;20443;-48
2022/05/06 14:21:35;;;;;;;237.77;109.32;;;;;;;;;;4970075;28;20217;-48
2022/05/06 14:24:01;;;;;;;194.02;87.10;;;;;;;;;;4961048;28;20258;-48
2022/05/06 14:26:27;;;;;;;137.70;63.08;;;;;;;;;;4971955;28;20371;-50
2022/05/06 14:28:54;;;;;;;139.18;61.00;;;;;;;;;;4964387;28;20221;-50
2022/05/06 14:31:20;;;;;;;118.45;53.50;;;;;;;;;;4964159;28;20221;-50
2022/05/06 14:33:46;;;;;;;186.05;71.88;;;;;;;;;;4975365;28;20658;-50
2022/05/06 14:36:17;;;;;;;146.98;61.40;;;;;;;;;;4969635;28;20209;-48
2022/05/06 14:38:43;;;;;;;138.82;72.43;;;;;;;;;;4974283;28;20685;-48
2022/05/06 14:41:09;;;;;;;103.43;49.88;;;;;;;;;;4975930;28;20249;-47
2022/05/06 14:43:35;;;;;;;139.20;64.30;;;;;;;;;;4976807;28;20228;-48
2022/05/06 14:46:01;;;;;;;107.20;48.20;;;;;;;;;;4966420;28;20687;-48
2022/05/06 14:48:27;;;;;;;129.55;52.35;;;;;;;;;;4972910;28;20241;-48
2022/05/06 14:50:53;;;;;;;119.97;46.58;;;;;;;;;;4977298;28;20186;-48
2022/05/06 14:53:19;;;;;;;83.53;41.05;;;;;;;;;;4975631;28;20579;-48